sensor_id;sensor_type;location;lat;lon;timestamp;temperature;humidity
1413;DHT22;701;52.526;13.408;2022-11-20T00:01:20;3.30;35.60
1413;DHT22;701;52.526;13.408;2022-11-20T00:03:46;3.30;35.60
1413;DHT22;701;52.526;13.408;2022-11-20T00:06:17;3.30;35.60
1413;DHT22;701;52.526;13.408;2022-11-20T00:08:44;3.30;35.60
1413;DHT22;701;52.526;13.408;2022-11-20T00:11:15;3.30;35.60
1413;DHT22;701;52.526;13.408;2022-11-20T00:13:42;3.30;35.60
1413;DHT22;701;52.526;13.408;2022-11-20T00:16:10;3.40;35.60
1413;DHT22;701;52.526;13.408;2022-11-20T00:18:36;3.40;35.60
1413;DHT22;701;52.526;13.408;2022-11-20T00:21:21;3.40;35.60
1413;DHT22;701;52.526;13.408;2022-11-20T00:23:48;3.40;35.60
1413;DHT22;701;52.526;13.408;2022-11-20T00:26:16;3.40;35.40
1413;DHT22;701;52.526;13.408;2022-11-20T00:28:43;3.40;35.50
1413;DHT22;701;52.526;13.408;2022-11-20T00:31:14;3.40;35.10
1413;DHT22;701;52.526;13.408;2022-11-20T00:33:41;3.40;35.20
1413;DHT22;701;52.526;13.408;2022-11-20T00:36:09;3.40;35.20
1413;DHT22;701;52.526;13.408;2022-11-20T00:38:36;3.40;35.10
1413;DHT22;701;52.526;13.408;2022-11-20T00:41:04;3.40;34.80
1413;DHT22;701;52.526;13.408;2022-11-20T00:43:30;3.40;34.90
1413;DHT22;701;52.526;13.408;2022-11-20T00:46:01;3.40;34.70
1413;DHT22;701;52.526;13.408;2022-11-20T00:48:27;3.40;34.20
1413;DHT22;701;52.526;13.408;2022-11-20T00:50:54;3.40;34.30
1413;DHT22;701;52.526;13.408;2022-11-20T00:53:20;3.40;34.30
1413;DHT22;701;52.526;13.408;2022-11-20T00:56:14;3.40;34.00
1413;DHT22;701;52.526;13.408;2022-11-20T00:58:42;3.40;33.80
1413;DHT22;701;52.526;13.408;2022-11-20T01:01:20;3.40;34.30
1413;DHT22;701;52.526;13.408;2022-11-20T01:03:50;3.40;33.70
1413;DHT22;701;52.526;13.408;2022-11-20T01:06:21;3.40;33.20
1413;DHT22;701;52.526;13.408;2022-11-20T01:08:48;3.30;33.00
1413;DHT22;701;52.526;13.408;2022-11-20T01:11:18;3.30;32.90
1413;DHT22;701;52.526;13.408;2022-11-20T01:13:45;3.20;32.70
1413;DHT22;701;52.526;13.408;2022-11-20T01:16:20;3.20;32.80
1413;DHT22;701;52.526;13.408;2022-11-20T01:18:48;3.20;33.10
1413;DHT22;701;52.526;13.408;2022-11-20T01:21:23;3.20;33.00
1413;DHT22;701;52.526;13.408;2022-11-20T01:23:50;3.20;32.60
1413;DHT22;701;52.526;13.408;2022-11-20T01:26:20;3.20;32.80
1413;DHT22;701;52.526;13.408;2022-11-20T01:28:46;3.20;32.50
1413;DHT22;701;52.526;13.408;2022-11-20T01:33:44;3.20;32.10
1413;DHT22;701;52.526;13.408;2022-11-20T01:36:11;3.30;32.90
1413;DHT22;701;52.526;13.408;2022-11-20T01:38:38;3.30;31.90
1413;DHT22;701;52.526;13.408;2022-11-20T01:41:05;3.30;31.90
1413;DHT22;701;52.526;13.408;2022-11-20T01:43:30;3.20;31.50
1413;DHT22;701;52.526;13.408;2022-11-20T01:46:16;3.20;31.60
1413;DHT22;701;52.526;13.408;2022-11-20T01:51:25;3.20;31.30
1413;DHT22;701;52.526;13.408;2022-11-20T01:53:54;3.20;31.60
1413;DHT22;701;52.526;13.408;2022-11-20T01:56:21;3.30;31.60
1413;DHT22;701;52.526;13.408;2022-11-20T01:58:51;3.20;31.40
1413;DHT22;701;52.526;13.408;2022-11-20T02:01:18;3.20;31.10
1413;DHT22;701;52.526;13.408;2022-11-20T02:03:44;3.30;31.20
1413;DHT22;701;52.526;13.408;2022-11-20T02:06:18;3.30;31.20
1413;DHT22;701;52.526;13.408;2022-11-20T02:08:44;3.20;31.10
1413;DHT22;701;52.526;13.408;2022-11-20T02:11:10;3.20;31.10
1413;DHT22;701;52.526;13.408;2022-11-20T02:13:38;3.20;31.10
1413;DHT22;701;52.526;13.408;2022-11-20T02:16:33;3.20;31.20
1413;DHT22;701;52.526;13.408;2022-11-20T02:19:01;3.20;31.10
1413;DHT22;701;52.526;13.408;2022-11-20T02:21:40;3.30;31.20
1413;DHT22;701;52.526;13.408;2022-11-20T02:24:15;3.20;31.10
1413;DHT22;701;52.526;13.408;2022-11-20T02:29:10;3.30;31.20
1413;DHT22;701;52.526;13.408;2022-11-20T02:31:38;3.30;30.60
1413;DHT22;701;52.526;13.408;2022-11-20T02:34:05;3.30;31.10
1413;DHT22;701;52.526;13.408;2022-11-20T02:36:32;3.30;31.00
1413;DHT22;701;52.526;13.408;2022-11-20T02:38:59;3.30;31.10
1413;DHT22;701;52.526;13.408;2022-11-20T02:41:36;3.30;31.20
1413;DHT22;701;52.526;13.408;2022-11-20T02:44:02;3.30;30.80
1413;DHT22;701;52.526;13.408;2022-11-20T02:46:29;3.30;30.70
1413;DHT22;701;52.526;13.408;2022-11-20T02:48:55;3.30;30.60
1413;DHT22;701;52.526;13.408;2022-11-20T02:51:20;3.30;30.30
1413;DHT22;701;52.526;13.408;2022-11-20T02:53:46;3.30;30.60
1413;DHT22;701;52.526;13.408;2022-11-20T02:56:12;3.30;30.70
1413;DHT22;701;52.526;13.408;2022-11-20T02:58:37;3.30;30.60
1413;DHT22;701;52.526;13.408;2022-11-20T03:01:03;3.30;30.60
1413;DHT22;701;52.526;13.408;2022-11-20T03:03:29;3.30;30.50
1413;DHT22;701;52.526;13.408;2022-11-20T03:05:54;3.30;30.50
1413;DHT22;701;52.526;13.408;2022-11-20T03:08:20;3.30;30.50
1413;DHT22;701;52.526;13.408;2022-11-20T03:10:46;3.30;30.30
1413;DHT22;701;52.526;13.408;2022-11-20T03:13:11;3.30;30.20
1413;DHT22;701;52.526;13.408;2022-11-20T03:15:37;3.30;30.30
1413;DHT22;701;52.526;13.408;2022-11-20T03:18:03;3.30;30.30
1413;DHT22;701;52.526;13.408;2022-11-20T03:20:29;3.30;30.40
1413;DHT22;701;52.526;13.408;2022-11-20T03:22:55;3.20;30.20
1413;DHT22;701;52.526;13.408;2022-11-20T03:25:21;3.30;30.20
1413;DHT22;701;52.526;13.408;2022-11-20T03:27:47;3.20;30.20
1413;DHT22;701;52.526;13.408;2022-11-20T03:30:13;3.20;30.30
1413;DHT22;701;52.526;13.408;2022-11-20T03:32:39;3.20;30.10
1413;DHT22;701;52.526;13.408;2022-11-20T03:35:06;3.20;30.30
1413;DHT22;701;52.526;13.408;2022-11-20T03:37:32;3.20;30.20
1413;DHT22;701;52.526;13.408;2022-11-20T03:39:57;3.20;30.20
1413;DHT22;701;52.526;13.408;2022-11-20T03:42:23;3.20;30.20
1413;DHT22;701;52.526;13.408;2022-11-20T03:45:07;3.20;30.40
1413;DHT22;701;52.526;13.408;2022-11-20T03:47:33;3.20;30.30
1413;DHT22;701;52.526;13.408;2022-11-20T03:49:59;3.20;30.40
1413;DHT22;701;52.526;13.408;2022-11-20T03:52:25;3.20;30.40
1413;DHT22;701;52.526;13.408;2022-11-20T03:54:50;3.20;30.30
1413;DHT22;701;52.526;13.408;2022-11-20T03:57:16;3.20;30.30
1413;DHT22;701;52.526;13.408;2022-11-20T03:59:42;3.20;30.30
1413;DHT22;701;52.526;13.408;2022-11-20T04:02:07;3.20;30.30
1413;DHT22;701;52.526;13.408;2022-11-20T04:04:33;3.20;30.10
1413;DHT22;701;52.526;13.408;2022-11-20T04:06:59;3.20;30.00
1413;DHT22;701;52.526;13.408;2022-11-20T04:09:24;3.20;30.10
1413;DHT22;701;52.526;13.408;2022-11-20T04:11:50;3.20;30.00
1413;DHT22;701;52.526;13.408;2022-11-20T04:14:16;3.10;29.90
1413;DHT22;701;52.526;13.408;2022-11-20T04:16:42;3.10;30.00
1413;DHT22;701;52.526;13.408;2022-11-20T04:19:14;3.00;29.90
1413;DHT22;701;52.526;13.408;2022-11-20T04:21:41;3.00;30.00
1413;DHT22;701;52.526;13.408;2022-11-20T04:24:07;3.00;30.00
1413;DHT22;701;52.526;13.408;2022-11-20T04:26:34;2.90;30.00
1413;DHT22;701;52.526;13.408;2022-11-20T04:29:00;2.90;30.20
1413;DHT22;701;52.526;13.408;2022-11-20T04:31:29;2.90;30.10
1413;DHT22;701;52.526;13.408;2022-11-20T04:33:58;2.80;30.10
1413;DHT22;701;52.526;13.408;2022-11-20T04:36:27;2.80;30.30
1413;DHT22;701;52.526;13.408;2022-11-20T04:38:55;2.70;30.70
1413;DHT22;701;52.526;13.408;2022-11-20T04:41:22;2.70;30.70
1413;DHT22;701;52.526;13.408;2022-11-20T04:43:53;2.70;31.30
1413;DHT22;701;52.526;13.408;2022-11-20T04:46:20;2.70;30.70
1413;DHT22;701;52.526;13.408;2022-11-20T04:48:46;2.70;30.80
1413;DHT22;701;52.526;13.408;2022-11-20T04:51:12;2.70;30.70
1413;DHT22;701;52.526;13.408;2022-11-20T04:53:38;2.60;30.70
1413;DHT22;701;52.526;13.408;2022-11-20T04:56:09;2.60;30.60
1413;DHT22;701;52.526;13.408;2022-11-20T04:58:35;2.60;30.60
1413;DHT22;701;52.526;13.408;2022-11-20T05:01:03;2.60;30.60
1413;DHT22;701;52.526;13.408;2022-11-20T05:03:30;2.60;30.70
1413;DHT22;701;52.526;13.408;2022-11-20T05:05:55;2.60;30.60
1413;DHT22;701;52.526;13.408;2022-11-20T05:08:21;2.60;30.70
1413;DHT22;701;52.526;13.408;2022-11-20T05:10:47;2.60;30.60
1413;DHT22;701;52.526;13.408;2022-11-20T05:13:13;2.60;30.80
1413;DHT22;701;52.526;13.408;2022-11-20T05:15:38;2.70;31.10
1413;DHT22;701;52.526;13.408;2022-11-20T05:18:04;2.70;31.00
1413;DHT22;701;52.526;13.408;2022-11-20T05:20:30;2.70;30.80
1413;DHT22;701;52.526;13.408;2022-11-20T05:22:58;2.70;30.80
1413;DHT22;701;52.526;13.408;2022-11-20T05:25:24;2.70;31.00
1413;DHT22;701;52.526;13.408;2022-11-20T05:27:50;2.70;30.80
1413;DHT22;701;52.526;13.408;2022-11-20T05:30:16;2.70;30.70
1413;DHT22;701;52.526;13.408;2022-11-20T05:32:42;2.70;30.70
1413;DHT22;701;52.526;13.408;2022-11-20T05:35:07;2.70;30.70
1413;DHT22;701;52.526;13.408;2022-11-20T05:37:33;2.70;30.70
1413;DHT22;701;52.526;13.408;2022-11-20T05:39:59;2.70;30.70
1413;DHT22;701;52.526;13.408;2022-11-20T05:42:25;2.70;30.70
1413;DHT22;701;52.526;13.408;2022-11-20T05:45:00;2.70;30.80
1413;DHT22;701;52.526;13.408;2022-11-20T05:47:28;2.70;30.70
1413;DHT22;701;52.526;13.408;2022-11-20T05:49:54;2.70;30.70
1413;DHT22;701;52.526;13.408;2022-11-20T05:52:19;2.70;30.70
1413;DHT22;701;52.526;13.408;2022-11-20T05:54:45;2.80;30.80
1413;DHT22;701;52.526;13.408;2022-11-20T05:57:11;2.80;30.80
1413;DHT22;701;52.526;13.408;2022-11-20T05:59:37;2.80;30.80
1413;DHT22;701;52.526;13.408;2022-11-20T06:02:02;2.80;30.80
1413;DHT22;701;52.526;13.408;2022-11-20T06:04:28;2.80;30.80
1413;DHT22;701;52.526;13.408;2022-11-20T06:06:54;2.80;30.80
1413;DHT22;701;52.526;13.408;2022-11-20T06:09:19;2.80;30.80
1413;DHT22;701;52.526;13.408;2022-11-20T06:11:45;2.80;30.80
1413;DHT22;701;52.526;13.408;2022-11-20T06:14:11;2.80;30.80
1413;DHT22;701;52.526;13.408;2022-11-20T06:16:36;2.80;30.80
1413;DHT22;701;52.526;13.408;2022-11-20T06:19:02;2.80;30.80
1413;DHT22;701;52.526;13.408;2022-11-20T06:21:28;2.80;30.80
1413;DHT22;701;52.526;13.408;2022-11-20T06:23:53;2.80;30.80
1413;DHT22;701;52.526;13.408;2022-11-20T06:26:22;2.80;31.10
1413;DHT22;701;52.526;13.408;2022-11-20T06:28:48;2.80;30.60
1413;DHT22;701;52.526;13.408;2022-11-20T06:31:16;2.80;30.70
1413;DHT22;701;52.526;13.408;2022-11-20T06:33:43;2.80;30.70
1413;DHT22;701;52.526;13.408;2022-11-20T06:36:10;2.80;30.80
1413;DHT22;701;52.526;13.408;2022-11-20T06:38:37;2.80;30.60
1413;DHT22;701;52.526;13.408;2022-11-20T06:41:04;2.80;30.70
1413;DHT22;701;52.526;13.408;2022-11-20T06:43:30;2.80;30.70
1413;DHT22;701;52.526;13.408;2022-11-20T06:45:57;2.70;30.40
1413;DHT22;701;52.526;13.408;2022-11-20T06:48:25;2.80;30.40
1413;DHT22;701;52.526;13.408;2022-11-20T06:50:51;2.80;30.20
1413;DHT22;701;52.526;13.408;2022-11-20T06:53:17;2.80;30.10
1413;DHT22;701;52.526;13.408;2022-11-20T06:55:44;2.80;30.00
1413;DHT22;701;52.526;13.408;2022-11-20T06:58:10;2.80;30.10
1413;DHT22;701;52.526;13.408;2022-11-20T07:00:36;2.70;30.00
1413;DHT22;701;52.526;13.408;2022-11-20T07:03:06;2.70;30.00
1413;DHT22;701;52.526;13.408;2022-11-20T07:05:33;2.70;29.90
1413;DHT22;701;52.526;13.408;2022-11-20T07:07:59;2.80;29.90
1413;DHT22;701;52.526;13.408;2022-11-20T07:10:25;2.70;29.60
1413;DHT22;701;52.526;13.408;2022-11-20T07:12:52;2.70;29.70
1413;DHT22;701;52.526;13.408;2022-11-20T07:15:19;2.80;29.70
1413;DHT22;701;52.526;13.408;2022-11-20T07:17:45;2.70;29.60
1413;DHT22;701;52.526;13.408;2022-11-20T07:20:11;2.80;29.70
1413;DHT22;701;52.526;13.408;2022-11-20T07:22:37;2.80;29.70
1413;DHT22;701;52.526;13.408;2022-11-20T07:25:03;2.80;29.60
1413;DHT22;701;52.526;13.408;2022-11-20T07:27:30;2.80;29.20
1413;DHT22;701;52.526;13.408;2022-11-20T07:29:56;2.80;29.10
1413;DHT22;701;52.526;13.408;2022-11-20T07:32:22;2.80;29.10
1413;DHT22;701;52.526;13.408;2022-11-20T07:34:48;2.80;29.10
1413;DHT22;701;52.526;13.408;2022-11-20T07:37:14;2.80;28.80
1413;DHT22;701;52.526;13.408;2022-11-20T07:39:39;2.80;29.00
1413;DHT22;701;52.526;13.408;2022-11-20T07:42:08;2.80;29.00
1413;DHT22;701;52.526;13.408;2022-11-20T07:44:36;2.90;28.80
1413;DHT22;701;52.526;13.408;2022-11-20T07:47:02;2.90;28.90
1413;DHT22;701;52.526;13.408;2022-11-20T07:49:27;2.90;28.70
1413;DHT22;701;52.526;13.408;2022-11-20T07:51:53;2.90;28.30
1413;DHT22;701;52.526;13.408;2022-11-20T07:54:22;2.90;28.40
1413;DHT22;701;52.526;13.408;2022-11-20T07:56:48;3.00;27.90
1413;DHT22;701;52.526;13.408;2022-11-20T07:59:14;3.00;28.10
1413;DHT22;701;52.526;13.408;2022-11-20T08:01:41;3.00;27.90
1413;DHT22;701;52.526;13.408;2022-11-20T08:04:08;3.10;28.00
1413;DHT22;701;52.526;13.408;2022-11-20T08:06:35;3.10;27.50
1413;DHT22;701;52.526;13.408;2022-11-20T08:09:00;3.10;27.50
1413;DHT22;701;52.526;13.408;2022-11-20T08:11:26;3.20;27.60
1413;DHT22;701;52.526;13.408;2022-11-20T08:14:10;3.20;27.60
1413;DHT22;701;52.526;13.408;2022-11-20T08:16:44;3.30;27.60
1413;DHT22;701;52.526;13.408;2022-11-20T08:19:11;3.30;27.60
1413;DHT22;701;52.526;13.408;2022-11-20T08:21:37;3.40;27.20
1413;DHT22;701;52.526;13.408;2022-11-20T08:24:04;3.40;27.00
1413;DHT22;701;52.526;13.408;2022-11-20T08:26:29;3.40;26.20
1413;DHT22;701;52.526;13.408;2022-11-20T08:28:56;3.50;26.10
1413;DHT22;701;52.526;13.408;2022-11-20T08:31:23;3.40;25.90
1413;DHT22;701;52.526;13.408;2022-11-20T08:33:49;3.50;25.80
1413;DHT22;701;52.526;13.408;2022-11-20T08:36:15;3.50;25.40
1413;DHT22;701;52.526;13.408;2022-11-20T08:38:41;3.50;25.40
1413;DHT22;701;52.526;13.408;2022-11-20T08:41:07;3.50;25.40
1413;DHT22;701;52.526;13.408;2022-11-20T08:43:53;3.50;25.30
1413;DHT22;701;52.526;13.408;2022-11-20T08:46:19;3.50;25.40
1413;DHT22;701;52.526;13.408;2022-11-20T08:48:45;3.50;25.60
1413;DHT22;701;52.526;13.408;2022-11-20T08:51:11;3.50;25.30
1413;DHT22;701;52.526;13.408;2022-11-20T08:53:38;3.50;25.50
1413;DHT22;701;52.526;13.408;2022-11-20T08:56:04;3.50;25.40
1413;DHT22;701;52.526;13.408;2022-11-20T08:58:30;3.60;25.50
1413;DHT22;701;52.526;13.408;2022-11-20T09:00:55;3.60;25.20
1413;DHT22;701;52.526;13.408;2022-11-20T09:03:21;3.60;25.30
1413;DHT22;701;52.526;13.408;2022-11-20T09:05:47;3.70;25.30
1413;DHT22;701;52.526;13.408;2022-11-20T09:08:13;3.70;25.40
1413;DHT22;701;52.526;13.408;2022-11-20T09:10:39;3.80;25.30
1413;DHT22;701;52.526;13.408;2022-11-20T09:13:05;3.80;25.20
1413;DHT22;701;52.526;13.408;2022-11-20T09:15:31;3.80;25.00
1413;DHT22;701;52.526;13.408;2022-11-20T09:17:59;3.80;25.10
1413;DHT22;701;52.526;13.408;2022-11-20T09:20:26;3.70;25.10
1413;DHT22;701;52.526;13.408;2022-11-20T09:22:52;3.80;25.10
1413;DHT22;701;52.526;13.408;2022-11-20T09:25:18;3.80;25.10
1413;DHT22;701;52.526;13.408;2022-11-20T09:27:44;3.80;25.20
1413;DHT22;701;52.526;13.408;2022-11-20T09:30:12;3.80;25.20
1413;DHT22;701;52.526;13.408;2022-11-20T09:32:39;3.80;24.90
1413;DHT22;701;52.526;13.408;2022-11-20T09:35:05;3.90;24.90
1413;DHT22;701;52.526;13.408;2022-11-20T09:37:31;3.90;24.80
1413;DHT22;701;52.526;13.408;2022-11-20T09:39:57;3.90;24.70
1413;DHT22;701;52.526;13.408;2022-11-20T09:56:21;4.10;23.80
1413;DHT22;701;52.526;13.408;2022-11-20T09:58:57;4.10;24.00
1413;DHT22;701;52.526;13.408;2022-11-20T10:01:29;4.10;23.80
1413;DHT22;701;52.526;13.408;2022-11-20T10:04:00;4.20;23.60
1413;DHT22;701;52.526;13.408;2022-11-20T10:06:36;4.20;23.40
1413;DHT22;701;52.526;13.408;2022-11-20T10:11:48;4.40;23.20
1413;DHT22;701;52.526;13.408;2022-11-20T10:14:21;4.50;23.00
1413;DHT22;701;52.526;13.408;2022-11-20T10:25:22;4.80;21.60
1413;DHT22;701;52.526;13.408;2022-11-20T10:30:17;4.90;21.60
1413;DHT22;701;52.526;13.408;2022-11-20T10:33:34;4.80;21.60
1413;DHT22;701;52.526;13.408;2022-11-20T10:35:47;4.80;22.10
1413;DHT22;701;52.526;13.408;2022-11-20T10:38:23;4.80;21.70
1413;DHT22;701;52.526;13.408;2022-11-20T10:40:54;4.80;22.30
1413;DHT22;701;52.526;13.408;2022-11-20T10:43:42;4.80;21.80
1413;DHT22;701;52.526;13.408;2022-11-20T10:46:37;4.90;21.60
1413;DHT22;701;52.526;13.408;2022-11-20T10:49:14;4.90;21.60
1413;DHT22;701;52.526;13.408;2022-11-20T11:02:49;4.90;21.60
1413;DHT22;701;52.526;13.408;2022-11-20T11:05:25;4.80;21.60
1413;DHT22;701;52.526;13.408;2022-11-20T11:07:55;4.90;21.90
1413;DHT22;701;52.526;13.408;2022-11-20T11:10:26;5.00;21.70
1413;DHT22;701;52.526;13.408;2022-11-20T11:12:53;5.10;21.70
1413;DHT22;701;52.526;13.408;2022-11-20T11:15:48;5.30;21.80
1413;DHT22;701;52.526;13.408;2022-11-20T11:18:24;5.50;21.00
1413;DHT22;701;52.526;13.408;2022-11-20T11:20:51;5.60;21.10
1413;DHT22;701;52.526;13.408;2022-11-20T11:23:43;5.70;20.60
1413;DHT22;701;52.526;13.408;2022-11-20T11:26:21;5.80;19.90
1413;DHT22;701;52.526;13.408;2022-11-20T11:28:58;5.80;20.00
1413;DHT22;701;52.526;13.408;2022-11-20T11:31:28;5.80;20.00
1413;DHT22;701;52.526;13.408;2022-11-20T11:34:10;5.80;20.00
1413;DHT22;701;52.526;13.408;2022-11-20T11:36:37;5.80;20.00
1413;DHT22;701;52.526;13.408;2022-11-20T11:39:04;5.70;20.20
1413;DHT22;701;52.526;13.408;2022-11-20T11:41:32;5.80;20.30
1413;DHT22;701;52.526;13.408;2022-11-20T11:44:27;5.80;20.10
1413;DHT22;701;52.526;13.408;2022-11-20T11:47:26;5.70;19.90
1413;DHT22;701;52.526;13.408;2022-11-20T11:55:36;5.70;20.40
1413;DHT22;701;52.526;13.408;2022-11-20T12:00:54;5.60;21.80
1413;DHT22;701;52.526;13.408;2022-11-20T12:03:28;5.50;21.80
1413;DHT22;701;52.526;13.408;2022-11-20T12:06:01;5.40;21.90
1413;DHT22;701;52.526;13.408;2022-11-20T12:08:43;5.30;22.80
1413;DHT22;701;52.526;13.408;2022-11-20T12:11:38;5.20;23.20
1413;DHT22;701;52.526;13.408;2022-11-20T12:14:31;5.10;23.90
1413;DHT22;701;52.526;13.408;2022-11-20T12:17:00;5.10;24.10
1413;DHT22;701;52.526;13.408;2022-11-20T12:19:30;5.10;24.30
1413;DHT22;701;52.526;13.408;2022-11-20T12:30:12;5.10;23.90
1413;DHT22;701;52.526;13.408;2022-11-20T12:43:27;4.90;23.50
1413;DHT22;701;52.526;13.408;2022-11-20T12:46:46;4.80;23.30
1413;DHT22;701;52.526;13.408;2022-11-20T12:57:25;4.50;24.00
1413;DHT22;701;52.526;13.408;2022-11-20T13:00:06;4.50;23.80
1413;DHT22;701;52.526;13.408;2022-11-20T13:08:23;4.50;24.10
1413;DHT22;701;52.526;13.408;2022-11-20T13:16:23;4.40;24.00
1413;DHT22;701;52.526;13.408;2022-11-20T13:18:50;4.50;24.30
1413;DHT22;701;52.526;13.408;2022-11-20T13:21:22;4.50;24.40
1413;DHT22;701;52.526;13.408;2022-11-20T13:23:48;4.60;24.70
1413;DHT22;701;52.526;13.408;2022-11-20T13:26:22;4.70;24.90
1413;DHT22;701;52.526;13.408;2022-11-20T13:29:08;4.80;24.20
1413;DHT22;701;52.526;13.408;2022-11-20T13:31:35;4.80;24.20
1413;DHT22;701;52.526;13.408;2022-11-20T13:34:04;4.80;23.70
1413;DHT22;701;52.526;13.408;2022-11-20T13:36:31;4.80;23.70
1413;DHT22;701;52.526;13.408;2022-11-20T13:38:58;4.80;23.40
1413;DHT22;701;52.526;13.408;2022-11-20T13:41:35;4.80;23.30
1413;DHT22;701;52.526;13.408;2022-11-20T13:44:23;4.70;23.10
1413;DHT22;701;52.526;13.408;2022-11-20T13:46:50;4.70;23.30
1413;DHT22;701;52.526;13.408;2022-11-20T13:49:31;4.70;23.50
1413;DHT22;701;52.526;13.408;2022-11-20T13:55:17;4.60;23.70
1413;DHT22;701;52.526;13.408;2022-11-20T14:03:35;4.40;24.30
1413;DHT22;701;52.526;13.408;2022-11-20T14:06:03;4.40;24.40
1413;DHT22;701;52.526;13.408;2022-11-20T14:08:35;4.30;24.50
1413;DHT22;701;52.526;13.408;2022-11-20T14:11:12;4.30;24.60
1413;DHT22;701;52.526;13.408;2022-11-20T14:13:39;4.30;24.70
1413;DHT22;701;52.526;13.408;2022-11-20T14:16:05;4.30;24.70
1413;DHT22;701;52.526;13.408;2022-11-20T14:18:30;4.30;24.70
1413;DHT22;701;52.526;13.408;2022-11-20T14:21:00;4.30;24.80
1413;DHT22;701;52.526;13.408;2022-11-20T14:23:28;4.30;25.00
1413;DHT22;701;52.526;13.408;2022-11-20T14:25:54;4.30;24.80
1413;DHT22;701;52.526;13.408;2022-11-20T14:28:26;4.20;24.70
1413;DHT22;701;52.526;13.408;2022-11-20T14:30:52;4.20;24.70
1413;DHT22;701;52.526;13.408;2022-11-20T14:33:19;4.10;24.90
1413;DHT22;701;52.526;13.408;2022-11-20T14:35:47;4.10;25.00
1413;DHT22;701;52.526;13.408;2022-11-20T14:38:15;4.10;25.30
1413;DHT22;701;52.526;13.408;2022-11-20T14:40:42;4.00;25.30
1413;DHT22;701;52.526;13.408;2022-11-20T14:43:28;4.00;25.50
1413;DHT22;701;52.526;13.408;2022-11-20T14:46:00;3.90;25.50
1413;DHT22;701;52.526;13.408;2022-11-20T14:48:51;3.90;25.40
1413;DHT22;701;52.526;13.408;2022-11-20T14:51:38;3.90;25.40
1413;DHT22;701;52.526;13.408;2022-11-20T14:54:18;3.80;25.50
1413;DHT22;701;52.526;13.408;2022-11-20T14:56:54;3.80;25.50
1413;DHT22;701;52.526;13.408;2022-11-20T14:59:25;3.80;25.60
1413;DHT22;701;52.526;13.408;2022-11-20T15:02:00;3.80;25.20
1413;DHT22;701;52.526;13.408;2022-11-20T15:04:26;3.80;25.40
1413;DHT22;701;52.526;13.408;2022-11-20T15:06:55;3.80;25.60
1413;DHT22;701;52.526;13.408;2022-11-20T15:09:21;3.80;25.40
1413;DHT22;701;52.526;13.408;2022-11-20T15:11:58;3.70;25.40
1413;DHT22;701;52.526;13.408;2022-11-20T15:14:27;3.80;25.40
1413;DHT22;701;52.526;13.408;2022-11-20T15:16:53;3.70;25.40
1413;DHT22;701;52.526;13.408;2022-11-20T15:19:28;3.80;25.50
1413;DHT22;701;52.526;13.408;2022-11-20T15:21:54;3.80;25.60
1413;DHT22;701;52.526;13.408;2022-11-20T15:24:20;3.70;25.60
1413;DHT22;701;52.526;13.408;2022-11-20T15:26:46;3.70;25.60
1413;DHT22;701;52.526;13.408;2022-11-20T15:29:14;3.70;25.60
1413;DHT22;701;52.526;13.408;2022-11-20T15:31:44;3.70;26.20
1413;DHT22;701;52.526;13.408;2022-11-20T15:34:14;3.70;25.60
1413;DHT22;701;52.526;13.408;2022-11-20T15:36:41;3.70;25.70
1413;DHT22;701;52.526;13.408;2022-11-20T15:39:07;3.70;25.70
1413;DHT22;701;52.526;13.408;2022-11-20T15:41:34;3.70;25.80
1413;DHT22;701;52.526;13.408;2022-11-20T15:44:01;3.70;25.70
1413;DHT22;701;52.526;13.408;2022-11-20T15:46:29;3.70;25.90
1413;DHT22;701;52.526;13.408;2022-11-20T15:48:56;3.70;25.90
1413;DHT22;701;52.526;13.408;2022-11-20T15:51:35;3.70;25.80
1413;DHT22;701;52.526;13.408;2022-11-20T15:54:12;3.70;26.40
1413;DHT22;701;52.526;13.408;2022-11-20T15:56:38;3.70;25.90
1413;DHT22;701;52.526;13.408;2022-11-20T15:59:04;3.70;25.80
1413;DHT22;701;52.526;13.408;2022-11-20T16:01:29;3.70;25.90
1413;DHT22;701;52.526;13.408;2022-11-20T16:03:56;3.60;25.80
1413;DHT22;701;52.526;13.408;2022-11-20T16:06:21;3.50;25.80
1413;DHT22;701;52.526;13.408;2022-11-20T16:08:47;3.40;25.80
1413;DHT22;701;52.526;13.408;2022-11-20T16:11:15;3.30;26.20
1413;DHT22;701;52.526;13.408;2022-11-20T16:13:42;3.20;26.20
1413;DHT22;701;52.526;13.408;2022-11-20T16:18:56;2.90;26.70
1413;DHT22;701;52.526;13.408;2022-11-20T16:21:22;2.80;27.00
1413;DHT22;701;52.526;13.408;2022-11-20T16:24:01;2.70;27.30
1413;DHT22;701;52.526;13.408;2022-11-20T16:26:28;2.60;27.20
1413;DHT22;701;52.526;13.408;2022-11-20T16:28:54;2.50;27.10
1413;DHT22;701;52.526;13.408;2022-11-20T16:31:20;2.30;27.80
1413;DHT22;701;52.526;13.408;2022-11-20T16:33:51;2.30;28.00
1413;DHT22;701;52.526;13.408;2022-11-20T16:36:18;2.20;28.30
1413;DHT22;701;52.526;13.408;2022-11-20T16:38:44;2.10;28.80
1413;DHT22;701;52.526;13.408;2022-11-20T16:41:10;2.00;28.40
1413;DHT22;701;52.526;13.408;2022-11-20T16:46:13;1.90;28.90
1413;DHT22;701;52.526;13.408;2022-11-20T16:48:39;1.90;28.90
1413;DHT22;701;52.526;13.408;2022-11-20T16:51:08;1.80;28.90
1413;DHT22;701;52.526;13.408;2022-11-20T16:53:35;1.80;29.20
1413;DHT22;701;52.526;13.408;2022-11-20T16:56:09;1.70;29.30
1413;DHT22;701;52.526;13.408;2022-11-20T16:58:36;1.70;29.60
1413;DHT22;701;52.526;13.408;2022-11-20T17:01:07;1.70;29.90
1413;DHT22;701;52.526;13.408;2022-11-20T17:03:36;1.70;30.00
1413;DHT22;701;52.526;13.408;2022-11-20T17:06:13;1.70;30.10
1413;DHT22;701;52.526;13.408;2022-11-20T17:08:39;1.80;30.00
1413;DHT22;701;52.526;13.408;2022-11-20T17:11:07;1.90;30.10
1413;DHT22;701;52.526;13.408;2022-11-20T17:13:33;2.00;30.00
1413;DHT22;701;52.526;13.408;2022-11-20T17:16:04;2.00;29.80
1413;DHT22;701;52.526;13.408;2022-11-20T17:18:31;2.10;29.60
1413;DHT22;701;52.526;13.408;2022-11-20T17:20:57;2.10;29.50
1413;DHT22;701;52.526;13.408;2022-11-20T17:23:22;2.20;29.50
1413;DHT22;701;52.526;13.408;2022-11-20T17:25:48;2.20;29.40
1413;DHT22;701;52.526;13.408;2022-11-20T17:28:14;2.20;29.20
1413;DHT22;701;52.526;13.408;2022-11-20T17:30:40;2.30;29.20
1413;DHT22;701;52.526;13.408;2022-11-20T17:33:05;2.40;29.10
1413;DHT22;701;52.526;13.408;2022-11-20T17:35:33;2.40;29.00
1413;DHT22;701;52.526;13.408;2022-11-20T17:38:00;2.50;28.70
1413;DHT22;701;52.526;13.408;2022-11-20T17:40:25;2.50;28.60
1413;DHT22;701;52.526;13.408;2022-11-20T17:42:51;2.60;28.60
1413;DHT22;701;52.526;13.408;2022-11-20T17:45:17;2.60;28.50
1413;DHT22;701;52.526;13.408;2022-11-20T17:47:43;2.70;28.30
1413;DHT22;701;52.526;13.408;2022-11-20T17:50:11;2.70;28.30
1413;DHT22;701;52.526;13.408;2022-11-20T17:52:36;2.80;28.30
1413;DHT22;701;52.526;13.408;2022-11-20T17:55:02;2.90;28.40
1413;DHT22;701;52.526;13.408;2022-11-20T17:57:28;2.90;28.00
1413;DHT22;701;52.526;13.408;2022-11-20T18:00:13;3.00;27.80
1413;DHT22;701;52.526;13.408;2022-11-20T18:02:40;3.00;27.80
1413;DHT22;701;52.526;13.408;2022-11-20T18:05:07;3.00;27.90
1413;DHT22;701;52.526;13.408;2022-11-20T18:07:32;3.10;27.50
1413;DHT22;701;52.526;13.408;2022-11-20T18:09:58;3.10;27.50
1413;DHT22;701;52.526;13.408;2022-11-20T18:12:24;3.20;27.50
1413;DHT22;701;52.526;13.408;2022-11-20T18:14:50;3.20;27.50
1413;DHT22;701;52.526;13.408;2022-11-20T18:17:16;3.20;27.60